sensor_id;sensor_type;location;lat;lon;timestamp;pressure;altitude;pressure_sealevel;temperature;humidity
27864;BME280;15980;51.092;13.916;2023-03-04T00:00:35;99084.72;;;0.70;89.93
27864;BME280;15980;51.092;13.916;2023-03-04T00:10:36;99078.75;;;0.68;89.17
27864;BME280;15980;51.092;13.916;2023-03-04T00:20:36;99069.59;;;0.74;88.94
27864;BME280;15980;51.092;13.916;2023-03-04T00:30:36;99064.78;;;0.91;88.82
27864;BME280;15980;51.092;13.916;2023-03-04T00:40:36;99056.41;;;0.87;88.49
27864;BME280;15980;51.092;13.916;2023-03-04T00:50:37;99043.19;;;0.96;88.92
27864;BME280;15980;51.092;13.916;2023-03-04T01:00:37;99038.84;;;0.90;88.72
27864;BME280;15980;51.092;13.916;2023-03-04T01:10:37;99022.38;;;0.91;88.83
27864;BME280;15980;51.092;13.916;2023-03-04T01:20:38;99002.66;;;0.91;88.82
27864;BME280;15980;51.092;13.916;2023-03-04T01:30:38;98997.78;;;0.98;88.89
27864;BME280;15980;51.092;13.916;2023-03-04T01:40:39;98986.97;;;1.03;88.34
27864;BME280;15980;51.092;13.916;2023-03-04T01:50:39;98975.63;;;1.06;87.75
27864;BME280;15980;51.092;13.916;2023-03-04T02:00:39;98960.75;;;1.04;87.96
27864;BME280;15980;51.092;13.916;2023-03-04T02:10:41;98956.16;;;1.04;87.40
27864;BME280;15980;51.092;13.916;2023-03-04T02:41:28;98940.78;;;1.00;87.10
27864;BME280;15980;51.092;13.916;2023-03-04T02:51:28;98923.47;;;1.01;86.87
27864;BME280;15980;51.092;13.916;2023-03-04T03:01:28;98912.94;;;0.99;87.29
27864;BME280;15980;51.092;13.916;2023-03-04T03:11:29;98897.56;;;0.89;87.46
27864;BME280;15980;51.092;13.916;2023-03-04T03:21:29;98894.03;;;1.04;87.01
27864;BME280;15980;51.092;13.916;2023-03-04T03:31:29;98891.59;;;0.82;87.89
27864;BME280;15980;51.092;13.916;2023-03-04T03:41:30;98877.56;;;0.96;87.95
27864;BME280;15980;51.092;13.916;2023-03-04T03:51:30;98882.72;;;0.92;87.67
27864;BME280;15980;51.092;13.916;2023-03-04T04:01:30;98881.88;;;1.02;87.20
27864;BME280;15980;51.092;13.916;2023-03-04T04:11:31;98867.81;;;1.05;87.16
27864;BME280;15980;51.092;13.916;2023-03-04T04:21:31;98885.41;;;0.97;87.46
27864;BME280;15980;51.092;13.916;2023-03-04T04:31:31;98890.81;;;0.87;87.63
27864;BME280;15980;51.092;13.916;2023-03-04T04:41:40;98879.47;;;0.95;87.71
27864;BME280;15980;51.092;13.916;2023-03-04T04:51:40;98877.00;;;1.09;87.25
27864;BME280;15980;51.092;13.916;2023-03-04T05:01:40;98862.13;;;1.06;87.20
27864;BME280;15980;51.092;13.916;2023-03-04T05:11:41;98882.41;;;1.09;86.81
27864;BME280;15980;51.092;13.916;2023-03-04T05:21:41;98870.75;;;1.18;86.48
27864;BME280;15980;51.092;13.916;2023-03-04T05:31:41;98865.91;;;1.05;87.63
27864;BME280;15980;51.092;13.916;2023-03-04T05:41:41;98867.25;;;1.13;87.15
27864;BME280;15980;51.092;13.916;2023-03-04T05:51:42;98855.88;;;1.16;86.86
27864;BME280;15980;51.092;13.916;2023-03-04T06:01:42;98848.81;;;1.25;86.98
27864;BME280;15980;51.092;13.916;2023-03-04T06:11:42;98836.41;;;1.24;86.72
27864;BME280;15980;51.092;13.916;2023-03-04T06:21:43;98843.16;;;1.32;86.54
27864;BME280;15980;51.092;13.916;2023-03-04T06:31:43;98846.03;;;1.50;87.07
27864;BME280;15980;51.092;13.916;2023-03-04T06:41:43;98846.28;;;1.54;86.64
27864;BME280;15980;51.092;13.916;2023-03-04T06:51:43;98848.63;;;1.71;87.60
27864;BME280;15980;51.092;13.916;2023-03-04T07:01:44;98852.44;;;1.70;87.94
27864;BME280;15980;51.092;13.916;2023-03-04T07:11:44;98837.00;;;1.75;88.38
27864;BME280;15980;51.092;13.916;2023-03-04T07:21:44;98836.19;;;1.75;89.48
27864;BME280;15980;51.092;13.916;2023-03-04T07:31:45;98834.00;;;1.82;89.35
27864;BME280;15980;51.092;13.916;2023-03-04T07:41:45;98838.13;;;2.08;89.90
27864;BME280;15980;51.092;13.916;2023-03-04T07:51:45;98824.56;;;2.13;90.47
27864;BME280;15980;51.092;13.916;2023-03-04T08:01:46;98825.28;;;2.29;89.51
27864;BME280;15980;51.092;13.916;2023-03-04T08:11:46;98821.06;;;2.47;89.76
27864;BME280;15980;51.092;13.916;2023-03-04T08:21:47;98823.13;;;2.60;88.85
27864;BME280;15980;51.092;13.916;2023-03-04T08:31:49;98814.44;;;2.29;90.75
27864;BME280;15980;51.092;13.916;2023-03-04T08:41:50;98805.97;;;2.70;90.09
27864;BME280;15980;51.092;13.916;2023-03-04T08:51:50;98813.41;;;2.54;90.88
27864;BME280;15980;51.092;13.916;2023-03-04T09:01:50;98815.13;;;2.45;92.24
27864;BME280;15980;51.092;13.916;2023-03-04T09:11:50;98820.72;;;2.53;92.89
27864;BME280;15980;51.092;13.916;2023-03-04T09:21:51;98808.94;;;2.39;93.32
27864;BME280;15980;51.092;13.916;2023-03-04T09:31:51;98806.59;;;2.86;92.05
27864;BME280;15980;51.092;13.916;2023-03-04T09:41:54;98799.03;;;3.11;92.23
27864;BME280;15980;51.092;13.916;2023-03-04T09:52:14;98789.84;;;3.07;92.04
27864;BME280;15980;51.092;13.916;2023-03-04T10:02:38;98779.75;;;3.13;92.30
27864;BME280;15980;51.092;13.916;2023-03-04T10:12:45;98774.06;;;3.33;90.92
27864;BME280;15980;51.092;13.916;2023-03-04T10:22:50;98762.38;;;3.57;92.41
27864;BME280;15980;51.092;13.916;2023-03-04T10:32:51;98763.44;;;3.37;90.86
27864;BME280;15980;51.092;13.916;2023-03-04T10:42:52;98759.56;;;3.43;91.64
27864;BME280;15980;51.092;13.916;2023-03-04T10:52:54;98747.69;;;2.96;94.92
27864;BME280;15980;51.092;13.916;2023-03-04T11:03:28;98755.72;;;3.25;94.61
27864;BME280;15980;51.092;13.916;2023-03-04T11:13:30;98750.66;;;3.19;93.92
27864;BME280;15980;51.092;13.916;2023-03-04T11:23:38;98736.34;;;3.56;94.43
27864;BME280;15980;51.092;13.916;2023-03-04T11:33:42;98742.06;;;3.54;93.98
27864;BME280;15980;51.092;13.916;2023-03-04T11:43:45;98733.44;;;4.03;91.31
27864;BME280;15980;51.092;13.916;2023-03-04T12:04:01;98728.09;;;3.79;92.04
27864;BME280;15980;51.092;13.916;2023-03-04T12:24:33;98697.94;;;4.00;89.96
27864;BME280;15980;51.092;13.916;2023-03-04T12:34:51;98681.97;;;3.98;89.29
27864;BME280;15980;51.092;13.916;2023-03-04T12:45:12;98682.06;;;4.07;89.57
27864;BME280;15980;51.092;13.916;2023-03-04T12:55:18;98674.44;;;4.23;87.92
27864;BME280;15980;51.092;13.916;2023-03-04T13:05:30;98665.75;;;4.39;85.39
27864;BME280;15980;51.092;13.916;2023-03-04T13:15:38;98661.31;;;4.44;84.37
27864;BME280;15980;51.092;13.916;2023-03-04T13:25:40;98650.66;;;4.61;83.44
27864;BME280;15980;51.092;13.916;2023-03-04T13:45:45;98645.56;;;5.09;80.06
27864;BME280;15980;51.092;13.916;2023-03-04T13:56:03;98640.09;;;4.87;80.09
27864;BME280;15980;51.092;13.916;2023-03-04T14:16:11;98621.13;;;4.95;79.72
27864;BME280;15980;51.092;13.916;2023-03-04T14:26:18;98613.28;;;4.94;79.00
27864;BME280;15980;51.092;13.916;2023-03-04T14:36:20;98616.44;;;5.23;78.64
27864;BME280;15980;51.092;13.916;2023-03-04T14:46:22;98626.84;;;5.08;78.88
27864;BME280;15980;51.092;13.916;2023-03-04T14:56:30;98639.94;;;5.05;77.27
27864;BME280;15980;51.092;13.916;2023-03-04T15:06:36;98619.00;;;5.06;78.46
27864;BME280;15980;51.092;13.916;2023-03-04T15:16:52;98616.91;;;4.89;77.40
27864;BME280;15980;51.092;13.916;2023-03-04T15:26:53;98613.09;;;4.90;75.22
27864;BME280;15980;51.092;13.916;2023-03-04T15:36:55;98610.06;;;4.92;73.53
27864;BME280;15980;51.092;13.916;2023-03-04T15:46:58;98613.38;;;4.89;72.80
27864;BME280;15980;51.092;13.916;2023-03-04T15:56:58;98621.16;;;4.82;72.89
27864;BME280;15980;51.092;13.916;2023-03-04T16:06:59;98624.38;;;4.56;71.24
27864;BME280;15980;51.092;13.916;2023-03-04T16:16:59;98644.53;;;4.41;71.59
27864;BME280;15980;51.092;13.916;2023-03-04T16:26:59;98631.72;;;4.28;70.94
27864;BME280;15980;51.092;13.916;2023-03-04T16:37:04;98629.91;;;4.24;69.55
27864;BME280;15980;51.092;13.916;2023-03-04T16:47:06;98625.06;;;4.21;70.07
27864;BME280;15980;51.092;13.916;2023-03-04T16:57:07;98634.50;;;4.09;70.10
27864;BME280;15980;51.092;13.916;2023-03-04T17:07:08;98639.13;;;4.09;70.64
27864;BME280;15980;51.092;13.916;2023-03-04T17:17:08;98645.25;;;4.01;71.11
27864;BME280;15980;51.092;13.916;2023-03-04T17:27:08;98645.06;;;3.97;72.12
27864;BME280;15980;51.092;13.916;2023-03-04T17:37:08;98651.06;;;3.94;73.28
27864;BME280;15980;51.092;13.916;2023-03-04T17:47:09;98661.78;;;3.86;73.99
27864;BME280;15980;51.092;13.916;2023-03-04T17:57:09;98653.59;;;3.91;73.69
27864;BME280;15980;51.092;13.916;2023-03-04T18:07:09;98667.81;;;3.83;75.27
27864;BME280;15980;51.092;13.916;2023-03-04T18:17:10;98669.22;;;3.80;75.41
27864;BME280;15980;51.092;13.916;2023-03-04T18:27:10;98660.31;;;3.61;74.42
27864;BME280;15980;51.092;13.916;2023-03-04T18:37:10;98665.44;;;3.62;72.99
27864;BME280;15980;51.092;13.916;2023-03-04T18:47:11;98655.59;;;3.66;72.51
27864;BME280;15980;51.092;13.916;2023-03-04T18:57:12;98664.28;;;3.50;71.50
27864;BME280;15980;51.092;13.916;2023-03-04T19:07:13;98659.66;;;3.50;70.70
27864;BME280;15980;51.092;13.916;2023-03-04T19:17:13;98668.16;;;3.43;70.46
27864;BME280;15980;51.092;13.916;2023-03-04T19:27:13;98679.28;;;3.42;69.69
27864;BME280;15980;51.092;13.916;2023-03-04T19:37:14;98682.06;;;3.37;70.12
27864;BME280;15980;51.092;13.916;2023-03-04T19:47:15;98666.69;;;3.32;70.58
27864;BME280;15980;51.092;13.916;2023-03-04T19:57:15;98671.81;;;3.34;70.54
27864;BME280;15980;51.092;13.916;2023-03-04T20:07:15;98674.81;;;3.32;70.79
27864;BME280;15980;51.092;13.916;2023-03-04T20:17:16;98677.84;;;3.31;72.32
27864;BME280;15980;51.092;13.916;2023-03-04T20:27:16;98674.16;;;3.22;75.92
27864;BME280;15980;51.092;13.916;2023-03-04T20:37:16;98676.06;;;3.21;77.42
27864;BME280;15980;51.092;13.916;2023-03-04T20:47:17;98670.00;;;3.10;79.43
27864;BME280;15980;51.092;13.916;2023-03-04T20:57:17;98670.91;;;3.01;80.79
27864;BME280;15980;51.092;13.916;2023-03-04T21:07:17;98662.84;;;2.96;81.62
27864;BME280;15980;51.092;13.916;2023-03-04T21:17:19;98655.47;;;3.01;81.87
27864;BME280;15980;51.092;13.916;2023-03-04T21:27:19;98648.56;;;2.90;81.93
27864;BME280;15980;51.092;13.916;2023-03-04T21:37:21;98654.94;;;2.80;82.59
27864;BME280;15980;51.092;13.916;2023-03-04T21:47:22;98654.63;;;2.82;83.11
27864;BME280;15980;51.092;13.916;2023-03-04T21:57:22;98638.16;;;2.78;83.83
27864;BME280;15980;51.092;13.916;2023-03-04T22:07:22;98633.25;;;2.80;83.80
27864;BME280;15980;51.092;13.916;2023-03-04T22:17:23;98626.22;;;2.79;83.60
27864;BME280;15980;51.092;13.916;2023-03-04T22:27:23;98628.63;;;2.81;83.00
27864;BME280;15980;51.092;13.916;2023-03-04T22:37:23;98620.94;;;2.69;82.49
27864;BME280;15980;51.092;13.916;2023-03-04T22:47:24;98607.47;;;2.64;82.99
27864;BME280;15980;51.092;13.916;2023-03-04T22:57:24;98610.41;;;2.68;83.08
27864;BME280;15980;51.092;13.916;2023-03-04T23:07:24;98609.41;;;2.59;82.90
27864;BME280;15980;51.092;13.916;2023-03-04T23:17:24;98611.63;;;2.33;83.19
27864;BME280;15980;51.092;13.916;2023-03-04T23:27:25;98602.50;;;2.47;82.62
27864;BME280;15980;51.092;13.916;2023-03-04T23:37:25;98594.53;;;2.56;82.02
27864;BME280;15980;51.092;13.916;2023-03-04T23:47:25;98594.06;;;2.30;81.65
27864;BME280;15980;51.092;13.916;2023-03-04T23:57:26;98589.53;;;2.44;81.14
